sensor_id;sensor_type;location;lat;lon;timestamp;P1;durP1;ratioP1;P2;durP2;ratioP2
13279;SDS011;6708;49.814;8.652;2022-09-24T00:01:47;2.20;;;2.10;;
13279;SDS011;6708;49.814;8.652;2022-09-24T00:04:18;2.20;;;2.10;;
13279;SDS011;6708;49.814;8.652;2022-09-24T00:06:48;2.00;;;1.90;;
13279;SDS011;6708;49.814;8.652;2022-09-24T00:09:18;2.00;;;1.90;;
13279;SDS011;6708;49.814;8.652;2022-09-24T00:11:47;1.67;;;1.57;;
13279;SDS011;6708;49.814;8.652;2022-09-24T00:14:16;2.07;;;1.97;;
13279;SDS011;6708;49.814;8.652;2022-09-24T00:16:44;2.00;;;1.90;;
13279;SDS011;6708;49.814;8.652;2022-09-24T00:19:13;2.93;;;1.97;;
13279;SDS011;6708;49.814;8.652;2022-09-24T00:21:44;2.17;;;1.97;;
13279;SDS011;6708;49.814;8.652;2022-09-24T00:24:13;1.93;;;1.83;;
13279;SDS011;6708;49.814;8.652;2022-09-24T00:27:04;2.03;;;1.93;;
13279;SDS011;6708;49.814;8.652;2022-09-24T00:29:30;2.37;;;2.00;;
13279;SDS011;6708;49.814;8.652;2022-09-24T00:32:00;2.30;;;2.10;;
13279;SDS011;6708;49.814;8.652;2022-09-24T00:34:29;2.17;;;2.07;;
13279;SDS011;6708;49.814;8.652;2022-09-24T00:37:00;2.03;;;1.80;;
13279;SDS011;6708;49.814;8.652;2022-09-24T00:39:28;1.97;;;1.87;;
13279;SDS011;6708;49.814;8.652;2022-09-24T00:41:57;2.20;;;2.10;;
13279;SDS011;6708;49.814;8.652;2022-09-24T00:44:44;1.73;;;1.57;;
13279;SDS011;6708;49.814;8.652;2022-09-24T00:47:21;2.30;;;2.10;;
13279;SDS011;6708;49.814;8.652;2022-09-24T00:49:53;2.10;;;2.00;;
13279;SDS011;6708;49.814;8.652;2022-09-24T00:52:28;1.97;;;1.87;;
13279;SDS011;6708;49.814;8.652;2022-09-24T00:54:57;2.23;;;2.13;;
13279;SDS011;6708;49.814;8.652;2022-09-24T00:57:25;2.23;;;2.13;;
13279;SDS011;6708;49.814;8.652;2022-09-24T00:59:54;2.80;;;1.83;;
13279;SDS011;6708;49.814;8.652;2022-09-24T01:02:23;1.87;;;1.77;;
13279;SDS011;6708;49.814;8.652;2022-09-24T01:04:52;1.97;;;1.87;;
13279;SDS011;6708;49.814;8.652;2022-09-24T01:07:20;2.10;;;1.93;;
13279;SDS011;6708;49.814;8.652;2022-09-24T01:09:52;1.87;;;1.77;;
13279;SDS011;6708;49.814;8.652;2022-09-24T01:12:22;2.27;;;2.07;;
13279;SDS011;6708;49.814;8.652;2022-09-24T01:14:57;1.80;;;1.70;;
13279;SDS011;6708;49.814;8.652;2022-09-24T01:17:32;1.77;;;1.67;;
13279;SDS011;6708;49.814;8.652;2022-09-24T01:23:09;1.80;;;1.70;;
13279;SDS011;6708;49.814;8.652;2022-09-24T01:25:46;1.97;;;1.80;;
13279;SDS011;6708;49.814;8.652;2022-09-24T01:28:27;1.57;;;1.47;;
13279;SDS011;6708;49.814;8.652;2022-09-24T01:31:04;2.00;;;1.90;;
13279;SDS011;6708;49.814;8.652;2022-09-24T01:33:38;1.73;;;1.73;;
13279;SDS011;6708;49.814;8.652;2022-09-24T01:36:06;2.97;;;2.03;;
13279;SDS011;6708;49.814;8.652;2022-09-24T01:38:36;2.00;;;1.90;;
13279;SDS011;6708;49.814;8.652;2022-09-24T01:41:09;2.00;;;1.90;;
13279;SDS011;6708;49.814;8.652;2022-09-24T01:43:40;2.07;;;1.97;;
13279;SDS011;6708;49.814;8.652;2022-09-24T01:46:11;1.90;;;1.73;;
13279;SDS011;6708;49.814;8.652;2022-09-24T01:48:41;1.70;;;1.60;;
13279;SDS011;6708;49.814;8.652;2022-09-24T01:51:11;3.93;;;1.90;;
13279;SDS011;6708;49.814;8.652;2022-09-24T01:53:43;2.20;;;1.90;;
13279;SDS011;6708;49.814;8.652;2022-09-24T01:56:14;1.43;;;1.43;;
13279;SDS011;6708;49.814;8.652;2022-09-24T01:58:46;1.50;;;1.40;;
13279;SDS011;6708;49.814;8.652;2022-09-24T02:01:20;1.30;;;1.30;;
13279;SDS011;6708;49.814;8.652;2022-09-24T02:03:52;1.60;;;1.50;;
13279;SDS011;6708;49.814;8.652;2022-09-24T02:06:24;1.10;;;1.10;;
13279;SDS011;6708;49.814;8.652;2022-09-24T02:08:55;1.10;;;1.00;;
13279;SDS011;6708;49.814;8.652;2022-09-24T02:11:23;1.20;;;1.20;;
13279;SDS011;6708;49.814;8.652;2022-09-24T02:13:54;1.37;;;1.37;;
13279;SDS011;6708;49.814;8.652;2022-09-24T02:16:28;1.57;;;1.50;;
13279;SDS011;6708;49.814;8.652;2022-09-24T02:19:00;5.50;;;1.53;;
13279;SDS011;6708;49.814;8.652;2022-09-24T02:21:32;1.93;;;1.63;;
13279;SDS011;6708;49.814;8.652;2022-09-24T02:24:04;1.43;;;1.43;;
13279;SDS011;6708;49.814;8.652;2022-09-24T02:26:35;1.40;;;1.40;;
13279;SDS011;6708;49.814;8.652;2022-09-24T02:29:03;1.30;;;1.30;;
13279;SDS011;6708;49.814;8.652;2022-09-24T02:31:36;1.73;;;1.63;;
13279;SDS011;6708;49.814;8.652;2022-09-24T02:34:05;1.37;;;1.37;;
13279;SDS011;6708;49.814;8.652;2022-09-24T02:36:50;1.70;;;1.70;;
13279;SDS011;6708;49.814;8.652;2022-09-24T02:39:20;1.90;;;1.70;;
13279;SDS011;6708;49.814;8.652;2022-09-24T02:41:49;1.60;;;1.60;;
13279;SDS011;6708;49.814;8.652;2022-09-24T02:44:19;1.53;;;1.53;;
13279;SDS011;6708;49.814;8.652;2022-09-24T02:46:51;1.80;;;1.80;;
13279;SDS011;6708;49.814;8.652;2022-09-24T02:49:19;1.90;;;1.80;;
13279;SDS011;6708;49.814;8.652;2022-09-24T02:51:48;1.63;;;1.63;;
13279;SDS011;6708;49.814;8.652;2022-09-24T02:54:16;1.67;;;1.67;;
13279;SDS011;6708;49.814;8.652;2022-09-24T02:56:45;2.00;;;1.90;;
13279;SDS011;6708;49.814;8.652;2022-09-24T02:59:13;2.83;;;1.83;;
13279;SDS011;6708;49.814;8.652;2022-09-24T03:01:42;1.97;;;1.87;;
13279;SDS011;6708;49.814;8.652;2022-09-24T03:04:13;2.50;;;1.43;;
13279;SDS011;6708;49.814;8.652;2022-09-24T03:06:42;1.80;;;1.70;;
13279;SDS011;6708;49.814;8.652;2022-09-24T03:09:10;1.67;;;1.57;;
13279;SDS011;6708;49.814;8.652;2022-09-24T03:11:39;1.07;;;1.07;;
13279;SDS011;6708;49.814;8.652;2022-09-24T03:14:07;2.33;;;1.67;;
13279;SDS011;6708;49.814;8.652;2022-09-24T03:16:36;8.80;;;2.10;;
13279;SDS011;6708;49.814;8.652;2022-09-24T03:19:04;1.70;;;1.60;;
13279;SDS011;6708;49.814;8.652;2022-09-24T03:21:35;1.40;;;1.40;;
13279;SDS011;6708;49.814;8.652;2022-09-24T03:24:04;2.40;;;1.80;;
13279;SDS011;6708;49.814;8.652;2022-09-24T03:26:32;1.10;;;1.10;;
13279;SDS011;6708;49.814;8.652;2022-09-24T03:29:02;2.00;;;1.80;;
13279;SDS011;6708;49.814;8.652;2022-09-24T03:31:30;4.57;;;1.90;;
13279;SDS011;6708;49.814;8.652;2022-09-24T03:33:56;2.23;;;2.13;;
13279;SDS011;6708;49.814;8.652;2022-09-24T03:36:24;1.93;;;1.80;;
13279;SDS011;6708;49.814;8.652;2022-09-24T03:38:56;1.90;;;1.80;;
13279;SDS011;6708;49.814;8.652;2022-09-24T03:41:25;2.03;;;1.80;;
13279;SDS011;6708;49.814;8.652;2022-09-24T03:43:54;1.77;;;1.77;;
13279;SDS011;6708;49.814;8.652;2022-09-24T03:46:23;2.00;;;1.90;;
13279;SDS011;6708;49.814;8.652;2022-09-24T03:48:54;2.60;;;1.93;;
13279;SDS011;6708;49.814;8.652;2022-09-24T03:51:24;2.23;;;2.13;;
13279;SDS011;6708;49.814;8.652;2022-09-24T03:53:52;2.10;;;2.00;;
13279;SDS011;6708;49.814;8.652;2022-09-24T03:56:23;2.27;;;2.20;;
13279;SDS011;6708;49.814;8.652;2022-09-24T03:58:51;2.20;;;2.10;;
13279;SDS011;6708;49.814;8.652;2022-09-24T04:01:20;2.43;;;2.33;;
13279;SDS011;6708;49.814;8.652;2022-09-24T04:03:48;2.37;;;2.27;;
13279;SDS011;6708;49.814;8.652;2022-09-24T04:06:17;2.40;;;2.30;;
13279;SDS011;6708;49.814;8.652;2022-09-24T04:08:45;2.13;;;2.03;;
13279;SDS011;6708;49.814;8.652;2022-09-24T04:11:14;2.40;;;2.30;;
13279;SDS011;6708;49.814;8.652;2022-09-24T04:13:45;2.20;;;2.10;;
13279;SDS011;6708;49.814;8.652;2022-09-24T04:16:17;2.90;;;2.70;;
13279;SDS011;6708;49.814;8.652;2022-09-24T04:18:45;2.70;;;2.50;;
13279;SDS011;6708;49.814;8.652;2022-09-24T04:21:15;2.60;;;2.40;;
13279;SDS011;6708;49.814;8.652;2022-09-24T04:23:43;2.00;;;2.00;;
13279;SDS011;6708;49.814;8.652;2022-09-24T04:26:12;2.40;;;2.23;;
13279;SDS011;6708;49.814;8.652;2022-09-24T04:28:40;2.60;;;2.50;;
13279;SDS011;6708;49.814;8.652;2022-09-24T04:31:11;2.00;;;1.90;;
13279;SDS011;6708;49.814;8.652;2022-09-24T04:33:39;2.10;;;2.00;;
13279;SDS011;6708;49.814;8.652;2022-09-24T04:36:08;2.37;;;2.17;;
13279;SDS011;6708;49.814;8.652;2022-09-24T04:38:36;2.40;;;2.30;;
13279;SDS011;6708;49.814;8.652;2022-09-24T04:41:05;2.37;;;2.27;;
13279;SDS011;6708;49.814;8.652;2022-09-24T04:43:34;2.50;;;2.40;;
13279;SDS011;6708;49.814;8.652;2022-09-24T04:46:03;2.17;;;2.07;;
13279;SDS011;6708;49.814;8.652;2022-09-24T04:48:35;2.43;;;2.33;;
13279;SDS011;6708;49.814;8.652;2022-09-24T04:51:04;2.43;;;2.33;;
13279;SDS011;6708;49.814;8.652;2022-09-24T04:53:33;2.20;;;2.10;;
13279;SDS011;6708;49.814;8.652;2022-09-24T04:56:02;2.20;;;2.10;;
13279;SDS011;6708;49.814;8.652;2022-09-24T04:58:35;2.10;;;2.00;;
13279;SDS011;6708;49.814;8.652;2022-09-24T05:01:03;2.07;;;1.97;;
13279;SDS011;6708;49.814;8.652;2022-09-24T05:03:32;2.30;;;2.20;;
13279;SDS011;6708;49.814;8.652;2022-09-24T05:06:03;2.10;;;2.00;;
13279;SDS011;6708;49.814;8.652;2022-09-24T05:08:32;2.40;;;2.30;;
13279;SDS011;6708;49.814;8.652;2022-09-24T05:11:00;2.37;;;2.27;;
13279;SDS011;6708;49.814;8.652;2022-09-24T05:13:29;4.10;;;2.43;;
13279;SDS011;6708;49.814;8.652;2022-09-24T05:15:57;2.93;;;2.73;;
13279;SDS011;6708;49.814;8.652;2022-09-24T05:18:26;2.77;;;2.57;;
13279;SDS011;6708;49.814;8.652;2022-09-24T05:20:54;1.87;;;1.87;;
13279;SDS011;6708;49.814;8.652;2022-09-24T05:23:25;2.07;;;1.97;;
13279;SDS011;6708;49.814;8.652;2022-09-24T05:25:53;1.93;;;1.93;;
13279;SDS011;6708;49.814;8.652;2022-09-24T05:28:34;2.60;;;2.50;;
13279;SDS011;6708;49.814;8.652;2022-09-24T05:31:04;2.83;;;2.63;;
13279;SDS011;6708;49.814;8.652;2022-09-24T05:33:33;2.53;;;2.43;;
13279;SDS011;6708;49.814;8.652;2022-09-24T05:36:01;3.40;;;2.70;;
13279;SDS011;6708;49.814;8.652;2022-09-24T05:38:33;2.80;;;2.70;;
13279;SDS011;6708;49.814;8.652;2022-09-24T05:41:01;3.43;;;2.47;;
13279;SDS011;6708;49.814;8.652;2022-09-24T05:43:29;2.70;;;2.60;;
13279;SDS011;6708;49.814;8.652;2022-09-24T05:45:58;5.90;;;2.47;;
13279;SDS011;6708;49.814;8.652;2022-09-24T05:48:26;2.60;;;2.50;;
13279;SDS011;6708;49.814;8.652;2022-09-24T05:50:55;2.20;;;2.10;;
13279;SDS011;6708;49.814;8.652;2022-09-24T05:53:24;2.93;;;2.73;;
13279;SDS011;6708;49.814;8.652;2022-09-24T05:55:55;2.57;;;2.47;;
13279;SDS011;6708;49.814;8.652;2022-09-24T05:58:23;2.87;;;2.77;;
13279;SDS011;6708;49.814;8.652;2022-09-24T06:00:52;2.73;;;2.60;;
13279;SDS011;6708;49.814;8.652;2022-09-24T06:03:20;3.10;;;2.90;;
13279;SDS011;6708;49.814;8.652;2022-09-24T06:05:49;3.77;;;3.20;;
13279;SDS011;6708;49.814;8.652;2022-09-24T06:08:19;3.30;;;3.10;;
13279;SDS011;6708;49.814;8.652;2022-09-24T06:10:47;3.53;;;3.20;;
13279;SDS011;6708;49.814;8.652;2022-09-24T06:13:18;3.17;;;3.03;;
13279;SDS011;6708;49.814;8.652;2022-09-24T06:15:47;3.13;;;2.83;;
13279;SDS011;6708;49.814;8.652;2022-09-24T06:18:15;3.17;;;2.80;;
13279;SDS011;6708;49.814;8.652;2022-09-24T06:20:44;2.93;;;2.73;;
13279;SDS011;6708;49.814;8.652;2022-09-24T06:23:12;3.73;;;3.30;;
13279;SDS011;6708;49.814;8.652;2022-09-24T06:25:40;3.33;;;3.13;;
13279;SDS011;6708;49.814;8.652;2022-09-24T06:28:09;5.10;;;4.60;;
13279;SDS011;6708;49.814;8.652;2022-09-24T06:30:40;3.07;;;2.97;;
13279;SDS011;6708;49.814;8.652;2022-09-24T06:33:09;3.07;;;2.97;;
13279;SDS011;6708;49.814;8.652;2022-09-24T06:35:39;3.10;;;3.00;;
13279;SDS011;6708;49.814;8.652;2022-09-24T06:38:09;3.20;;;3.10;;
13279;SDS011;6708;49.814;8.652;2022-09-24T06:40:39;3.33;;;3.13;;
13279;SDS011;6708;49.814;8.652;2022-09-24T06:43:09;4.20;;;3.90;;
13279;SDS011;6708;49.814;8.652;2022-09-24T06:45:41;3.00;;;2.80;;
13279;SDS011;6708;49.814;8.652;2022-09-24T06:48:10;11.10;;;8.80;;
13279;SDS011;6708;49.814;8.652;2022-09-24T06:50:40;5.67;;;5.07;;
13279;SDS011;6708;49.814;8.652;2022-09-24T06:53:10;3.70;;;3.40;;
13279;SDS011;6708;49.814;8.652;2022-09-24T06:55:40;2.87;;;2.77;;
13279;SDS011;6708;49.814;8.652;2022-09-24T06:58:09;2.77;;;2.67;;
13279;SDS011;6708;49.814;8.652;2022-09-24T07:00:41;5.67;;;3.40;;
13279;SDS011;6708;49.814;8.652;2022-09-24T07:03:12;3.07;;;2.87;;
13279;SDS011;6708;49.814;8.652;2022-09-24T07:05:42;3.43;;;3.23;;
13279;SDS011;6708;49.814;8.652;2022-09-24T07:08:11;3.03;;;2.93;;
13279;SDS011;6708;49.814;8.652;2022-09-24T07:10:40;3.00;;;2.80;;
13279;SDS011;6708;49.814;8.652;2022-09-24T07:13:10;2.90;;;2.77;;
13279;SDS011;6708;49.814;8.652;2022-09-24T07:15:41;3.57;;;3.37;;
13279;SDS011;6708;49.814;8.652;2022-09-24T07:18:10;4.37;;;3.27;;
13279;SDS011;6708;49.814;8.652;2022-09-24T07:20:39;4.10;;;3.80;;
13279;SDS011;6708;49.814;8.652;2022-09-24T07:23:08;5.33;;;3.77;;
13279;SDS011;6708;49.814;8.652;2022-09-24T07:25:38;3.93;;;3.70;;
13279;SDS011;6708;49.814;8.652;2022-09-24T07:28:09;3.90;;;3.60;;
13279;SDS011;6708;49.814;8.652;2022-09-24T07:30:42;20.30;;;4.67;;
13279;SDS011;6708;49.814;8.652;2022-09-24T07:33:13;5.17;;;4.73;;
13279;SDS011;6708;49.814;8.652;2022-09-24T07:35:41;4.67;;;4.37;;
13279;SDS011;6708;49.814;8.652;2022-09-24T07:38:10;4.67;;;4.33;;
13279;SDS011;6708;49.814;8.652;2022-09-24T07:40:39;4.30;;;4.10;;
13279;SDS011;6708;49.814;8.652;2022-09-24T07:43:08;3.87;;;3.57;;
13279;SDS011;6708;49.814;8.652;2022-09-24T07:45:38;3.87;;;3.57;;
13279;SDS011;6708;49.814;8.652;2022-09-24T07:48:09;4.00;;;3.70;;
13279;SDS011;6708;49.814;8.652;2022-09-24T07:50:40;3.60;;;3.30;;
13279;SDS011;6708;49.814;8.652;2022-09-24T07:53:09;5.90;;;3.83;;
13279;SDS011;6708;49.814;8.652;2022-09-24T07:55:39;4.50;;;4.20;;
13279;SDS011;6708;49.814;8.652;2022-09-24T07:58:10;4.40;;;3.67;;
13279;SDS011;6708;49.814;8.652;2022-09-24T08:00:39;3.70;;;3.50;;
13279;SDS011;6708;49.814;8.652;2022-09-24T08:03:10;4.07;;;3.77;;
13279;SDS011;6708;49.814;8.652;2022-09-24T08:05:41;4.10;;;3.70;;
13279;SDS011;6708;49.814;8.652;2022-09-24T08:08:11;4.07;;;3.73;;
13279;SDS011;6708;49.814;8.652;2022-09-24T08:10:39;8.10;;;3.77;;
13279;SDS011;6708;49.814;8.652;2022-09-24T08:13:08;4.00;;;3.80;;
13279;SDS011;6708;49.814;8.652;2022-09-24T08:15:37;3.93;;;3.73;;
13279;SDS011;6708;49.814;8.652;2022-09-24T08:18:05;4.10;;;3.90;;
13279;SDS011;6708;49.814;8.652;2022-09-24T08:20:37;4.33;;;4.03;;
13279;SDS011;6708;49.814;8.652;2022-09-24T08:23:06;4.53;;;4.27;;
13279;SDS011;6708;49.814;8.652;2022-09-24T08:25:36;5.13;;;4.80;;
13279;SDS011;6708;49.814;8.652;2022-09-24T08:28:05;6.27;;;4.97;;
13279;SDS011;6708;49.814;8.652;2022-09-24T08:30:36;5.80;;;5.30;;
13279;SDS011;6708;49.814;8.652;2022-09-24T08:33:06;6.80;;;6.20;;
13279;SDS011;6708;49.814;8.652;2022-09-24T08:35:37;7.10;;;6.40;;
13279;SDS011;6708;49.814;8.652;2022-09-24T08:38:06;6.90;;;6.37;;
13279;SDS011;6708;49.814;8.652;2022-09-24T08:40:36;6.47;;;5.80;;
13279;SDS011;6708;49.814;8.652;2022-09-24T08:43:08;7.47;;;5.70;;
13279;SDS011;6708;49.814;8.652;2022-09-24T08:45:47;5.73;;;5.00;;
13279;SDS011;6708;49.814;8.652;2022-09-24T08:48:32;6.00;;;4.90;;
13279;SDS011;6708;49.814;8.652;2022-09-24T08:51:06;5.23;;;4.83;;
13279;SDS011;6708;49.814;8.652;2022-09-24T08:53:41;4.70;;;4.40;;
13279;SDS011;6708;49.814;8.652;2022-09-24T08:56:12;4.40;;;4.20;;
13279;SDS011;6708;49.814;8.652;2022-09-24T08:58:43;4.37;;;4.07;;
13279;SDS011;6708;49.814;8.652;2022-09-24T09:01:16;4.80;;;4.37;;
13279;SDS011;6708;49.814;8.652;2022-09-24T09:03:51;4.70;;;4.40;;
13279;SDS011;6708;49.814;8.652;2022-09-24T09:06:34;5.47;;;5.07;;
13279;SDS011;6708;49.814;8.652;2022-09-24T09:09:10;4.87;;;4.47;;
13279;SDS011;6708;49.814;8.652;2022-09-24T09:11:41;5.63;;;4.33;;
13279;SDS011;6708;49.814;8.652;2022-09-24T09:14:13;5.83;;;4.93;;
13279;SDS011;6708;49.814;8.652;2022-09-24T09:16:46;4.93;;;4.63;;
13279;SDS011;6708;49.814;8.652;2022-09-24T09:19:17;5.57;;;5.17;;
13279;SDS011;6708;49.814;8.652;2022-09-24T09:21:50;5.63;;;4.77;;
13279;SDS011;6708;49.814;8.652;2022-09-24T09:24:21;5.53;;;5.03;;
13279;SDS011;6708;49.814;8.652;2022-09-24T09:26:55;5.07;;;4.67;;
13279;SDS011;6708;49.814;8.652;2022-09-24T09:29:24;4.87;;;4.57;;
13279;SDS011;6708;49.814;8.652;2022-09-24T09:31:57;5.00;;;4.50;;
13279;SDS011;6708;49.814;8.652;2022-09-24T09:34:34;8.00;;;5.10;;
13279;SDS011;6708;49.814;8.652;2022-09-24T09:37:21;5.00;;;4.60;;
13279;SDS011;6708;49.814;8.652;2022-09-24T09:39:56;4.60;;;4.30;;
13279;SDS011;6708;49.814;8.652;2022-09-24T09:42:34;6.50;;;4.70;;
13279;SDS011;6708;49.814;8.652;2022-09-24T09:45:12;5.20;;;4.80;;
13279;SDS011;6708;49.814;8.652;2022-09-24T09:47:48;5.60;;;5.20;;
13279;SDS011;6708;49.814;8.652;2022-09-24T09:50:20;5.67;;;5.27;;
13279;SDS011;6708;49.814;8.652;2022-09-24T09:52:56;5.73;;;5.33;;
13279;SDS011;6708;49.814;8.652;2022-09-24T09:55:25;6.33;;;5.77;;
13279;SDS011;6708;49.814;8.652;2022-09-24T09:57:57;8.20;;;5.67;;
13279;SDS011;6708;49.814;8.652;2022-09-24T10:00:35;6.93;;;5.47;;
13279;SDS011;6708;49.814;8.652;2022-09-24T10:03:04;5.70;;;5.20;;
13279;SDS011;6708;49.814;8.652;2022-09-24T10:05:32;7.17;;;5.50;;
13279;SDS011;6708;49.814;8.652;2022-09-24T10:08:04;5.97;;;5.33;;
13279;SDS011;6708;49.814;8.652;2022-09-24T10:10:34;5.50;;;5.10;;
13279;SDS011;6708;49.814;8.652;2022-09-24T10:13:07;5.30;;;4.90;;
13279;SDS011;6708;49.814;8.652;2022-09-24T10:15:38;6.10;;;5.03;;
13279;SDS011;6708;49.814;8.652;2022-09-24T10:18:09;12.77;;;5.53;;
13279;SDS011;6708;49.814;8.652;2022-09-24T10:20:44;5.43;;;4.93;;
13279;SDS011;6708;49.814;8.652;2022-09-24T10:23:17;5.50;;;4.90;;
13279;SDS011;6708;49.814;8.652;2022-09-24T10:25:48;7.20;;;6.30;;
13279;SDS011;6708;49.814;8.652;2022-09-24T10:28:18;6.50;;;5.43;;
13279;SDS011;6708;49.814;8.652;2022-09-24T10:31:00;6.40;;;5.90;;
13279;SDS011;6708;49.814;8.652;2022-09-24T10:33:34;6.67;;;5.80;;
13279;SDS011;6708;49.814;8.652;2022-09-24T10:36:03;7.70;;;6.20;;
13279;SDS011;6708;49.814;8.652;2022-09-24T10:38:36;5.97;;;5.37;;
13279;SDS011;6708;49.814;8.652;2022-09-24T10:41:12;6.27;;;5.67;;
13279;SDS011;6708;49.814;8.652;2022-09-24T10:43:48;7.50;;;6.23;;
13279;SDS011;6708;49.814;8.652;2022-09-24T10:46:21;7.30;;;5.83;;
13279;SDS011;6708;49.814;8.652;2022-09-24T10:49:00;7.97;;;5.73;;
13279;SDS011;6708;49.814;8.652;2022-09-24T10:51:33;5.83;;;5.23;;
13279;SDS011;6708;49.814;8.652;2022-09-24T10:54:13;5.07;;;4.53;;
13279;SDS011;6708;49.814;8.652;2022-09-24T10:56:51;6.30;;;5.73;;
13279;SDS011;6708;49.814;8.652;2022-09-24T10:59:26;6.97;;;5.83;;
13279;SDS011;6708;49.814;8.652;2022-09-24T11:02:06;6.93;;;5.60;;
13279;SDS011;6708;49.814;8.652;2022-09-24T11:04:49;5.87;;;5.37;;
13279;SDS011;6708;49.814;8.652;2022-09-24T11:07:28;5.00;;;4.70;;
13279;SDS011;6708;49.814;8.652;2022-09-24T11:10:07;5.67;;;5.17;;
13279;SDS011;6708;49.814;8.652;2022-09-24T11:12:45;6.80;;;5.13;;
13279;SDS011;6708;49.814;8.652;2022-09-24T11:15:22;5.63;;;5.23;;
13279;SDS011;6708;49.814;8.652;2022-09-24T11:18:02;5.20;;;4.70;;
13279;SDS011;6708;49.814;8.652;2022-09-24T11:20:36;5.73;;;5.30;;
13279;SDS011;6708;49.814;8.652;2022-09-24T11:23:11;6.10;;;5.53;;
13279;SDS011;6708;49.814;8.652;2022-09-24T11:25:49;5.27;;;4.80;;
13279;SDS011;6708;49.814;8.652;2022-09-24T11:28:27;9.40;;;5.80;;
13279;SDS011;6708;49.814;8.652;2022-09-24T11:31:04;6.70;;;5.53;;
13279;SDS011;6708;49.814;8.652;2022-09-24T11:33:41;6.27;;;5.63;;
13279;SDS011;6708;49.814;8.652;2022-09-24T11:36:23;6.03;;;5.53;;
13279;SDS011;6708;49.814;8.652;2022-09-24T11:39:01;4.63;;;4.33;;
13279;SDS011;6708;49.814;8.652;2022-09-24T11:41:41;4.73;;;4.33;;
13279;SDS011;6708;49.814;8.652;2022-09-24T11:44:24;5.13;;;4.63;;
13279;SDS011;6708;49.814;8.652;2022-09-24T11:47:08;5.27;;;4.87;;
13279;SDS011;6708;49.814;8.652;2022-09-24T11:49:52;4.57;;;4.20;;
13279;SDS011;6708;49.814;8.652;2022-09-24T11:52:27;6.10;;;5.03;;
13279;SDS011;6708;49.814;8.652;2022-09-24T11:55:01;5.20;;;4.80;;
13279;SDS011;6708;49.814;8.652;2022-09-24T11:57:35;8.80;;;4.87;;
13279;SDS011;6708;49.814;8.652;2022-09-24T12:00:11;5.33;;;4.73;;
13279;SDS011;6708;49.814;8.652;2022-09-24T12:02:42;5.60;;;4.80;;
13279;SDS011;6708;49.814;8.652;2022-09-24T12:05:15;8.80;;;4.37;;
13279;SDS011;6708;49.814;8.652;2022-09-24T12:07:48;4.80;;;4.40;;
13279;SDS011;6708;49.814;8.652;2022-09-24T12:10:24;5.37;;;4.80;;
13279;SDS011;6708;49.814;8.652;2022-09-24T12:13:01;4.40;;;4.10;;
13279;SDS011;6708;49.814;8.652;2022-09-24T12:15:40;4.73;;;4.33;;
13279;SDS011;6708;49.814;8.652;2022-09-24T12:18:13;5.50;;;4.40;;
13279;SDS011;6708;49.814;8.652;2022-09-24T12:20:46;4.37;;;3.80;;
13279;SDS011;6708;49.814;8.652;2022-09-24T12:23:19;3.73;;;3.47;;
13279;SDS011;6708;49.814;8.652;2022-09-24T12:25:52;3.83;;;3.53;;
13279;SDS011;6708;49.814;8.652;2022-09-24T12:28:23;3.23;;;3.03;;
13279;SDS011;6708;49.814;8.652;2022-09-24T12:31:09;3.50;;;3.13;;
13279;SDS011;6708;49.814;8.652;2022-09-24T12:33:54;3.67;;;3.47;;
13279;SDS011;6708;49.814;8.652;2022-09-24T12:36:33;3.50;;;3.30;;
13279;SDS011;6708;49.814;8.652;2022-09-24T12:39:15;4.10;;;3.80;;
13279;SDS011;6708;49.814;8.652;2022-09-24T12:41:44;4.63;;;4.23;;
13279;SDS011;6708;49.814;8.652;2022-09-24T12:44:27;4.60;;;4.20;;
13279;SDS011;6708;49.814;8.652;2022-09-24T12:46:58;4.10;;;3.80;;
13279;SDS011;6708;49.814;8.652;2022-09-24T12:49:28;6.20;;;4.23;;
13279;SDS011;6708;49.814;8.652;2022-09-24T12:51:58;5.10;;;3.93;;
13279;SDS011;6708;49.814;8.652;2022-09-24T12:54:30;3.60;;;3.40;;
13279;SDS011;6708;49.814;8.652;2022-09-24T12:57:03;6.83;;;3.33;;
13279;SDS011;6708;49.814;8.652;2022-09-24T12:59:47;4.57;;;3.03;;
13279;SDS011;6708;49.814;8.652;2022-09-24T13:02:18;3.00;;;2.80;;
13279;SDS011;6708;49.814;8.652;2022-09-24T13:05:03;6.47;;;3.70;;
13279;SDS011;6708;49.814;8.652;2022-09-24T13:07:53;5.97;;;2.80;;
13279;SDS011;6708;49.814;8.652;2022-09-24T13:10:24;2.50;;;2.30;;
13279;SDS011;6708;49.814;8.652;2022-09-24T13:12:54;3.23;;;2.93;;
13279;SDS011;6708;49.814;8.652;2022-09-24T13:15:36;2.77;;;2.40;;
13279;SDS011;6708;49.814;8.652;2022-09-24T13:18:16;2.20;;;2.10;;
13279;SDS011;6708;49.814;8.652;2022-09-24T13:20:56;3.17;;;2.70;;
13279;SDS011;6708;49.814;8.652;2022-09-24T13:23:31;2.63;;;2.50;;
13279;SDS011;6708;49.814;8.652;2022-09-24T13:26:12;2.40;;;2.20;;
13279;SDS011;6708;49.814;8.652;2022-09-24T13:28:50;3.13;;;2.70;;
13279;SDS011;6708;49.814;8.652;2022-09-24T13:31:28;2.43;;;2.23;;
13279;SDS011;6708;49.814;8.652;2022-09-24T13:34:00;2.97;;;2.83;;
13279;SDS011;6708;49.814;8.652;2022-09-24T13:36:33;3.50;;;3.20;;
13279;SDS011;6708;49.814;8.652;2022-09-24T13:39:06;3.77;;;3.50;;
13279;SDS011;6708;49.814;8.652;2022-09-24T13:41:40;3.63;;;3.33;;
13279;SDS011;6708;49.814;8.652;2022-09-24T13:44:14;4.03;;;3.67;;
13279;SDS011;6708;49.814;8.652;2022-09-24T13:46:49;6.80;;;3.23;;
13279;SDS011;6708;49.814;8.652;2022-09-24T13:49:18;3.47;;;3.17;;
13279;SDS011;6708;49.814;8.652;2022-09-24T13:51:51;3.50;;;3.30;;
13279;SDS011;6708;49.814;8.652;2022-09-24T13:54:25;3.80;;;3.37;;
13279;SDS011;6708;49.814;8.652;2022-09-24T13:57:01;3.90;;;3.60;;
13279;SDS011;6708;49.814;8.652;2022-09-24T13:59:35;3.53;;;3.23;;
13279;SDS011;6708;49.814;8.652;2022-09-24T14:04:53;2.73;;;2.57;;
13279;SDS011;6708;49.814;8.652;2022-09-24T14:07:22;2.60;;;2.50;;
13279;SDS011;6708;49.814;8.652;2022-09-24T14:10:00;3.47;;;2.67;;
13279;SDS011;6708;49.814;8.652;2022-09-24T14:12:29;3.27;;;3.03;;
13279;SDS011;6708;49.814;8.652;2022-09-24T14:14:58;4.57;;;4.20;;
13279;SDS011;6708;49.814;8.652;2022-09-24T14:17:31;4.13;;;3.73;;
13279;SDS011;6708;49.814;8.652;2022-09-24T14:19:59;3.67;;;3.40;;
13279;SDS011;6708;49.814;8.652;2022-09-24T14:22:29;3.50;;;3.30;;
13279;SDS011;6708;49.814;8.652;2022-09-24T14:25:02;3.87;;;2.90;;
13279;SDS011;6708;49.814;8.652;2022-09-24T14:27:34;4.43;;;4.03;;
13279;SDS011;6708;49.814;8.652;2022-09-24T14:30:14;3.70;;;3.40;;
13279;SDS011;6708;49.814;8.652;2022-09-24T14:32:49;3.40;;;3.20;;
13279;SDS011;6708;49.814;8.652;2022-09-24T14:35:18;3.57;;;3.37;;
13279;SDS011;6708;49.814;8.652;2022-09-24T14:37:49;3.63;;;3.43;;
13279;SDS011;6708;49.814;8.652;2022-09-24T14:40:18;3.33;;;3.13;;
13279;SDS011;6708;49.814;8.652;2022-09-24T14:42:50;3.57;;;3.37;;
13279;SDS011;6708;49.814;8.652;2022-09-24T14:45:21;3.40;;;3.10;;
13279;SDS011;6708;49.814;8.652;2022-09-24T14:48:00;4.47;;;3.60;;
13279;SDS011;6708;49.814;8.652;2022-09-24T14:50:31;4.03;;;3.60;;
13279;SDS011;6708;49.814;8.652;2022-09-24T14:53:10;6.23;;;3.70;;
13279;SDS011;6708;49.814;8.652;2022-09-24T14:55:41;4.37;;;4.07;;
13279;SDS011;6708;49.814;8.652;2022-09-24T14:58:23;4.57;;;4.27;;
13279;SDS011;6708;49.814;8.652;2022-09-24T15:00:52;4.37;;;4.07;;
13279;SDS011;6708;49.814;8.652;2022-09-24T15:03:27;4.10;;;3.73;;
13279;SDS011;6708;49.814;8.652;2022-09-24T15:06:03;4.27;;;3.70;;
13279;SDS011;6708;49.814;8.652;2022-09-24T15:08:32;4.53;;;4.23;;
13279;SDS011;6708;49.814;8.652;2022-09-24T15:11:01;4.60;;;4.30;;
13279;SDS011;6708;49.814;8.652;2022-09-24T15:13:32;4.10;;;3.80;;
13279;SDS011;6708;49.814;8.652;2022-09-24T15:16:03;3.93;;;3.63;;
13279;SDS011;6708;49.814;8.652;2022-09-24T15:18:35;4.10;;;3.80;;
13279;SDS011;6708;49.814;8.652;2022-09-24T15:21:04;4.23;;;3.90;;
13279;SDS011;6708;49.814;8.652;2022-09-24T15:23:35;4.20;;;3.80;;
13279;SDS011;6708;49.814;8.652;2022-09-24T15:26:03;3.93;;;3.73;;
13279;SDS011;6708;49.814;8.652;2022-09-24T15:28:32;4.40;;;4.10;;
13279;SDS011;6708;49.814;8.652;2022-09-24T15:31:00;3.53;;;3.20;;
13279;SDS011;6708;49.814;8.652;2022-09-24T15:33:28;7.00;;;4.00;;
13279;SDS011;6708;49.814;8.652;2022-09-24T15:35:59;4.17;;;3.77;;